Time;durP1;ratioP1;P1;durP2;ratioP2;P2;SDS_P1;SDS_P2;PMS_P1;PMS_P2;Temp;Humidity;BMP_temperature;BMP_pressure;BME280_temperature;BME280_humidity;BME280_pressure;Samples;Min_cycle;Max_cycle;Signal;HPM_P1;HPM_P2
2023/08/17 00:02:16;;;;;;;8.43;5.80;;;;;;;28.03;48.98;99929.53;4316523;33;33107;-68
2023/08/17 00:04:44;;;;;;;7.93;6.10;;;;;;;28.01;49.10;99925.37;4316646;33;33673;-70
2023/08/17 00:07:12;;;;;;;7.97;6.05;;;;;;;27.99;49.07;99930.28;4316087;33;33024;-67
2023/08/17 00:09:39;;;;;;;8.27;6.32;;;;;;;27.97;49.14;99930.53;4302285;33;34621;-67
2023/08/17 00:12:08;;;;;;;11.77;6.65;;;;;;;27.97;49.11;99919.56;4290451;33;34650;-69
2023/08/17 00:14:36;;;;;;;8.02;6.40;;;;;;;27.95;49.11;99924.47;4302624;33;33757;-69
2023/08/17 00:17:03;;;;;;;8.55;6.62;;;;;;;27.94;49.16;99922.81;4315840;33;34276;-67
2023/08/17 00:19:31;;;;;;;8.70;6.15;;;;;;;27.92;49.27;99928.53;4314644;33;33871;-70
2023/08/17 00:22:00;;;;;;;18.10;6.18;;;;;;;27.90;49.35;99918.94;4317130;33;33693;-67
2023/08/17 00:24:28;;;;;;;9.35;6.35;;;;;;;27.90;49.37;99918.94;4317518;33;34457;-70
2023/08/17 00:26:55;;;;;;;10.32;6.45;;;;;;;27.88;49.37;99916.41;4317585;33;32644;-67
2023/08/17 00:29:23;;;;;;;10.30;7.15;;;;;;;27.88;49.44;99912.84;4304387;33;33801;-67
2023/08/17 00:31:52;;;;;;;7.95;6.20;;;;;;;27.87;49.47;99909.28;4317349;33;33233;-67
2023/08/17 00:34:20;;;;;;;8.73;6.70;;;;;;;27.86;49.57;99913.12;4304175;33;34293;-67
2023/08/17 00:36:47;;;;;;;9.45;6.55;;;;;;;27.87;49.51;99905.72;4317525;33;33534;-67
2023/08/17 00:39:15;;;;;;;9.13;6.05;;;;;;;27.86;49.70;99901.31;4304207;33;34105;-68
2023/08/17 00:41:44;;;;;;;7.90;6.75;;;;;;;27.84;49.74;99898.84;4304191;33;32897;-68
2023/08/17 00:44:11;;;;;;;9.02;6.68;;;;;;;27.82;49.86;99894.69;4304155;33;32940;-67
2023/08/17 00:46:39;;;;;;;7.90;5.62;;;;;;;27.81;49.86;99893.84;4317347;33;32964;-67
2023/08/17 00:49:07;;;;;;;8.52;6.22;;;;;;;27.80;49.78;99905.91;4304289;33;34686;-67
2023/08/17 00:51:35;;;;;;;10.88;6.78;;;;;;;27.80;49.91;99907.81;4317399;33;33662;-69
2023/08/17 00:54:03;;;;;;;8.48;5.95;;;;;;;27.78;50.00;99905.31;4292478;33;33536;-68
2023/08/17 00:56:33;;;;;;;10.38;6.93;;;;;;;27.77;50.04;99911.06;4292293;33;33330;-67
2023/08/17 00:59:01;;;;;;;8.10;6.62;;;;;;;27.76;50.17;99912.97;4292202;33;33792;-68
2023/08/17 01:01:28;;;;;;;8.77;6.72;;;;;;;27.75;50.08;99915.97;4304040;33;33969;-70
2023/08/17 01:03:56;;;;;;;9.23;6.80;;;;;;;27.76;49.96;99923.13;4304233;33;34168;-71
2023/08/17 01:06:24;;;;;;;9.90;6.80;;;;;;;27.75;49.96;99926.94;4317154;33;33112;-72
2023/08/17 01:08:52;;;;;;;8.23;6.30;;;;;;;27.74;49.97;99928.00;4303977;33;33922;-70
2023/08/17 01:11:31;;;;;;;8.05;6.68;;;;;;;27.74;49.93;99923.34;4292279;33;34145;-69
2023/08/17 01:14:04;;;;;;;11.20;6.60;;;;;;;27.75;49.89;99927.78;4303082;33;34582;-70
2023/08/17 01:16:56;;;;;;;9.63;6.80;;;;;;;27.73;49.82;99926.34;4301577;33;33166;-70
2023/08/17 01:19:27;;;;;;;8.73;6.32;;;;;;;27.75;49.92;99932.44;4301500;33;34214;-72
2023/08/17 01:22:05;;;;;;;9.05;7.53;;;;;;;27.72;49.96;99933.75;4289882;33;33143;-71
2023/08/17 01:24:33;;;;;;;8.32;6.30;;;;;;;27.74;49.94;99933.50;4301280;33;33743;-68
2023/08/17 01:27:01;;;;;;;9.68;6.90;;;;;;;27.70;49.89;99931.25;4302619;33;33370;-73
2023/08/17 01:29:28;;;;;;;11.80;6.85;;;;;;;27.70;49.96;99933.16;4302539;33;33309;-69
2023/08/17 01:32:16;;;;;;;11.02;6.90;;;;;;;27.69;49.96;99928.72;4288972;33;33646;-71
2023/08/17 01:35:01;;;;;;;8.05;7.10;;;;;;;27.71;49.75;99930.19;4289386;33;34096;-71
2023/08/17 01:37:29;;;;;;;8.18;6.57;;;;;;;27.67;49.99;99930.91;4278995;33;34447;-68
2023/08/17 01:39:59;;;;;;;;;;;;;;;27.67;49.88;99929.00;4301601;33;34659;-69
2023/08/17 01:42:27;;;;;;;10.15;6.10;;;;;;;27.77;49.60;99919.28;4289202;33;33185;-69
2023/08/17 01:44:54;;;;;;;9.40;7.25;;;;;;;27.68;49.81;99927.09;4289235;33;33549;-71
2023/08/17 01:47:23;;;;;;;9.82;6.35;;;;;;;27.64;49.88;99920.44;4289337;33;33415;-68
2023/08/17 01:49:51;;;;;;;8.48;6.72;;;;;;;27.64;49.94;99921.25;4302323;33;34352;-68
2023/08/17 01:52:18;;;;;;;9.32;6.72;;;;;;;27.63;49.94;99911.38;4301205;33;33014;-68
2023/08/17 01:54:47;;;;;;;10.27;6.80;;;;;;;27.63;49.91;99913.31;4300956;33;33911;-68
2023/08/17 01:57:14;;;;;;;8.52;7.40;;;;;;;27.62;50.04;99912.47;4300836;33;33177;-67
2023/08/17 01:59:44;;;;;;;8.48;6.43;;;;;;;27.61;50.08;99910.00;4302059;33;33747;-67
2023/08/17 02:02:14;;;;;;;8.90;7.15;;;;;;;27.60;49.99;99911.88;4302006;33;33945;-67
2023/08/17 02:04:43;;;;;;;10.70;7.37;;;;;;;27.61;50.09;99920.97;4300870;33;32805;-71
2023/08/17 02:07:10;;;;;;;8.80;7.10;;;;;;;27.60;50.08;99920.09;4300883;33;33881;-68
2023/08/17 02:09:39;;;;;;;10.65;7.75;;;;;;;27.59;50.07;99917.63;4300634;33;33665;-68
2023/08/17 02:12:08;;;;;;;9.13;7.10;;;;;;;27.57;50.22;99923.38;4302110;33;33896;-68
2023/08/17 02:14:35;;;;;;;9.82;7.93;;;;;;;27.57;50.24;99917.87;4306122;33;34685;-68
2023/08/17 02:17:05;;;;;;;9.80;7.35;;;;;;;27.58;50.32;99916.81;4303244;33;34203;-72
2023/08/17 02:19:32;;;;;;;11.47;7.47;;;;;;;27.57;50.43;99925.28;4316423;33;33829;-67
2023/08/17 02:22:01;;;;;;;10.90;7.65;;;;;;;27.57;50.26;99920.62;4316354;33;33524;-71
2023/08/17 02:24:29;;;;;;;12.70;7.32;;;;;;;27.58;50.31;99915.97;4303012;33;34014;-70
2023/08/17 02:26:56;;;;;;;9.38;7.37;;;;;;;27.58;50.33;99926.94;4316421;33;33489;-71
2023/08/17 02:29:24;;;;;;;10.15;7.90;;;;;;;27.57;50.64;99917.87;4316425;33;34064;-67
2023/08/17 02:31:52;;;;;;;11.30;7.97;;;;;;;27.57;50.84;99917.87;4302788;33;32968;-70
2023/08/17 02:34:20;;;;;;;14.35;8.90;;;;;;;27.56;50.90;99923.59;4316264;33;34725;-68
2023/08/17 02:36:48;;;;;;;14.05;8.40;;;;;;;27.55;50.97;99921.94;4304108;33;33893;-68
2023/08/17 02:39:17;;;;;;;12.65;8.50;;;;;;;27.54;50.92;99925.78;4301503;33;33727;-69
2023/08/17 02:41:49;;;;;;;11.32;8.45;;;;;;;27.55;50.85;99922.78;4288143;33;32883;-68
2023/08/17 02:44:17;;;;;;;11.27;8.57;;;;;;;27.55;51.07;99911.81;4302963;33;34355;-71
2023/08/17 02:46:45;;;;;;;13.60;8.45;;;;;;;27.54;50.92;99923.84;4303731;33;33386;-68
2023/08/17 02:49:12;;;;;;;9.27;8.15;;;;;;;27.54;51.01;99921.12;4303503;33;33968;-70
2023/08/17 02:51:40;;;;;;;9.18;8.27;;;;;;;27.53;50.96;99916.72;4290323;33;33970;-72
2023/08/17 02:54:07;;;;;;;11.52;8.32;;;;;;;27.53;50.84;99915.91;4290840;33;34452;-67
2023/08/17 02:56:35;;;;;;;11.57;8.32;;;;;;;27.54;50.89;99904.66;4303443;33;33154;-68
2023/08/17 02:59:03;;;;;;;11.77;8.35;;;;;;;27.55;51.02;99900.03;4303407;33;33820;-69
2023/08/17 03:01:32;;;;;;;9.38;8.13;;;;;;;27.55;51.10;99905.50;4278442;33;32975;-68
2023/08/17 03:04:00;;;;;;;9.52;7.85;;;;;;;27.55;51.11;99902.75;4303588;33;34080;-68
2023/08/17 03:06:28;;;;;;;10.90;7.73;;;;;;;27.54;50.93;99896.44;4303507;33;34779;-68
2023/08/17 03:08:56;;;;;;;10.43;8.38;;;;;;;27.56;51.09;99902.53;4303922;33;33545;-68
2023/08/17 03:11:24;;;;;;;9.48;8.48;;;;;;;27.55;51.22;99900.84;4290263;33;33677;-69
2023/08/17 03:13:59;;;;;;;12.73;8.60;;;;;;;27.55;51.32;99908.25;4303265;33;34053;-69
2023/08/17 03:16:27;;;;;;;11.48;8.70;;;;;;;27.56;51.25;99907.16;4303563;33;34160;-72
2023/08/17 03:18:56;;;;;;;12.70;8.63;;;;;;;27.55;51.32;99906.31;4302200;33;34561;-68
2023/08/17 03:21:24;;;;;;;10.65;8.80;;;;;;;27.54;51.38;99912.06;4302431;33;33749;-68
2023/08/17 03:23:52;;;;;;;10.73;8.02;;;;;;;27.53;51.38;99913.97;4302249;33;33911;-67
2023/08/17 03:26:20;;;;;;;11.57;8.75;;;;;;;27.53;51.28;99913.97;4303359;33;33621;-71
2023/08/17 03:28:49;;;;;;;11.75;8.30;;;;;;;27.54;51.21;99909.31;4290116;33;32836;-69
2023/08/17 03:31:17;;;;;;;7.82;7.03;;;;;;;27.53;51.17;99904.94;4303378;33;34746;-68
2023/08/17 03:33:45;;;;;;;12.27;8.43;;;;;;;27.54;50.94;99898.38;4302245;33;33899;-67
2023/08/17 03:36:12;;;;;;;9.82;7.90;;;;;;;27.52;50.93;99898.62;4303833;33;33516;-71
2023/08/17 03:38:40;;;;;;;12.50;8.43;;;;;;;27.53;50.88;99902.19;4303253;33;33603;-71
2023/08/17 03:41:08;;;;;;;11.23;7.93;;;;;;;27.53;50.96;99897.53;4301888;33;34010;-70
2023/08/17 03:43:37;;;;;;;8.90;7.90;;;;;;;27.53;51.05;99908.50;4302375;33;33906;-69
2023/08/17 03:46:05;;;;;;;11.90;7.03;;;;;;;27.55;50.92;99902.75;4303282;33;33363;-69
2023/08/17 03:48:34;;;;;;;11.98;7.22;;;;;;;27.54;51.00;99898.38;4303428;33;34620;-68
2023/08/17 03:51:02;;;;;;;12.23;7.25;;;;;;;27.55;50.83;99898.09;4290160;33;33187;-68
2023/08/17 03:53:30;;;;;;;8.00;7.15;;;;;;;27.54;50.81;99893.72;4302144;33;33428;-71
2023/08/17 03:55:59;;;;;;;9.82;7.75;;;;;;;27.54;50.93;99892.88;4301758;33;33860;-72
2023/08/17 03:58:31;;;;;;;8.82;7.47;;;;;;;27.54;50.87;99901.94;4301999;33;34667;-68
2023/08/17 04:00:59;;;;;;;9.15;7.72;;;;;;;27.53;50.94;99900.28;4303221;33;33626;-71
2023/08/17 04:03:28;;;;;;;9.05;7.60;;;;;;;27.53;51.03;99899.47;4302077;33;34017;-71
2023/08/17 04:05:55;;;;;;;10.13;7.87;;;;;;;27.54;50.96;99898.38;4303229;33;34455;-68
2023/08/17 04:08:23;;;;;;;11.30;8.38;;;;;;;27.53;51.05;99899.47;4289835;33;33787;-70
2023/08/17 04:10:50;;;;;;;10.57;8.63;;;;;;;27.53;51.14;99899.47;4302274;33;34168;-72
2023/08/17 04:13:18;;;;;;;8.57;7.35;;;;;;;27.53;51.13;99908.50;4303109;33;33895;-67
2023/08/17 04:15:46;;;;;;;9.18;7.85;;;;;;;27.51;51.21;99904.34;4314291;33;33336;-69
2023/08/17 04:18:13;;;;;;;12.18;7.62;;;;;;;27.52;51.00;99909.59;4292399;33;33784;-70
2023/08/17 04:20:41;;;;;;;9.82;7.82;;;;;;;27.51;51.04;99916.13;4292327;33;33081;-67
2023/08/17 04:23:09;;;;;;;14.20;7.70;;;;;;;27.52;51.02;99915.06;4304705;33;33849;-71
2023/08/17 04:25:39;;;;;;;14.43;7.97;;;;;;;27.52;50.97;99916.97;4317824;33;33447;-68
2023/08/17 04:28:07;;;;;;;11.27;7.43;;;;;;;27.51;51.02;99916.13;4304273;33;33841;-67
2023/08/17 04:30:34;;;;;;;9.73;7.97;;;;;;;27.51;51.06;99913.38;4304493;33;33980;-68
2023/08/17 04:33:03;;;;;;;10.68;7.75;;;;;;;27.51;51.00;99909.81;4303196;33;33534;-68
2023/08/17 04:35:30;;;;;;;11.52;7.75;;;;;;;27.51;50.98;99918.03;4309298;33;33331;-69
2023/08/17 04:37:59;;;;;;;10.20;7.37;;;;;;;27.51;51.06;99907.09;4304130;33;33791;-68
2023/08/17 04:40:27;;;;;;;9.95;7.62;;;;;;;27.51;51.04;99915.31;4304634;33;34606;-68
2023/08/17 04:42:56;;;;;;;8.35;7.35;;;;;;;27.50;51.00;99911.75;4292311;33;34273;-69
2023/08/17 04:45:25;;;;;;;9.68;7.78;;;;;;;27.51;50.97;99912.56;4304393;33;33378;-68
2023/08/17 04:47:54;;;;;;;10.32;7.45;;;;;;;27.51;50.86;99904.34;4304307;33;34234;-68
2023/08/17 04:50:22;;;;;;;9.10;7.45;;;;;;;27.49;50.89;99910.09;4317450;33;34780;-68
2023/08/17 04:52:50;;;;;;;9.25;7.43;;;;;;;27.49;51.08;99910.09;4317570;33;34359;-68
2023/08/17 04:55:18;;;;;;;13.35;7.60;;;;;;;27.50;51.14;99917.22;4304084;33;32054;-69
2023/08/17 04:57:45;;;;;;;8.43;7.05;;;;;;;27.50;51.25;99917.22;4292008;33;32838;-69
2023/08/17 05:00:14;;;;;;;10.40;8.05;;;;;;;27.49;51.17;99922.97;4317525;33;34798;-70
2023/08/17 05:02:43;;;;;;;10.05;7.53;;;;;;;27.48;51.33;99926.78;4292141;33;33522;-69
2023/08/17 05:05:12;;;;;;;8.63;7.47;;;;;;;27.49;51.32;99921.03;4317040;33;33640;-69
2023/08/17 05:07:40;;;;;;;14.77;8.40;;;;;;;27.48;51.21;99919.41;4303814;33;33120;-74
2023/08/17 05:10:09;;;;;;;12.20;8.40;;;;;;;27.49;51.40;99922.97;4304408;33;33356;-69
2023/08/17 05:12:37;;;;;;;13.45;7.68;;;;;;;27.49;51.43;99928.44;4317516;33;33851;-69
2023/08/17 05:15:06;;;;;;;8.55;7.05;;;;;;;27.50;51.38;99930.09;4303967;33;33401;-68
2023/08/17 05:17:39;;;;;;;12.10;8.38;;;;;;;27.48;51.06;99915.81;4317460;33;33933;-68
2023/08/17 05:20:08;;;;;;;11.43;8.30;;;;;;;27.50;51.42;99919.13;4304213;33;33996;-69
2023/08/17 05:22:36;;;;;;;8.93;7.37;;;;;;;27.50;51.44;99916.38;4303770;33;33695;-68
2023/08/17 05:25:05;;;;;;;12.00;8.27;;;;;;;27.49;51.41;99914.72;4317175;33;34271;-74
2023/08/17 05:27:33;;;;;;;12.07;8.30;;;;;;;27.49;51.53;99912.81;4303850;33;34617;-74
2023/08/17 05:30:01;;;;;;;16.45;7.62;;;;;;;27.50;51.41;99911.75;4304110;33;34013;-68
2023/08/17 05:32:30;;;;;;;11.52;8.50;;;;;;;27.51;51.63;99915.31;4303985;33;33910;-71
2023/08/17 05:34:58;;;;;;;13.40;8.40;;;;;;;27.51;51.83;99912.56;4303898;33;34284;-71
2023/08/17 05:37:26;;;;;;;10.88;8.23;;;;;;;27.50;51.92;99911.75;4317251;33;35278;-68
2023/08/17 05:39:54;;;;;;;11.55;7.68;;;;;;;27.51;51.89;99913.38;4316890;33;33966;-68
2023/08/17 05:42:22;;;;;;;12.00;8.45;;;;;;;27.52;51.96;99911.50;4316750;33;34812;-68
2023/08/17 05:44:50;;;;;;;13.65;8.65;;;;;;;27.51;51.99;99913.38;4292019;33;32752;-68
2023/08/17 05:47:19;;;;;;;12.55;8.75;;;;;;;27.51;52.11;99913.38;4303818;33;33905;-69
2023/08/17 05:49:46;;;;;;;11.75;7.87;;;;;;;27.52;52.12;99917.81;4316694;33;34188;-68
2023/08/17 05:52:14;;;;;;;9.55;7.95;;;;;;;27.52;52.11;99920.56;4303633;33;33942;-68
2023/08/17 05:54:42;;;;;;;9.95;8.88;;;;;;;27.52;52.09;99915.06;4303738;33;33451;-69
2023/08/17 05:57:10;;;;;;;11.00;8.40;;;;;;;27.53;52.13;99913.97;4303466;33;34520;-68
2023/08/17 05:59:38;;;;;;;11.32;8.68;;;;;;;27.55;52.23;99916.47;4316840;33;33969;-68
2023/08/17 06:02:06;;;;;;;10.98;8.07;;;;;;;27.55;52.28;99924.69;4303305;33;33914;-68
2023/08/17 06:04:34;;;;;;;9.70;7.18;;;;;;;27.55;52.29;99919.19;4316689;33;34120;-69
2023/08/17 06:07:01;;;;;;;10.55;8.52;;;;;;;27.54;52.30;99915.63;4316530;33;34876;-68
2023/08/17 06:09:29;;;;;;;11.80;8.18;;;;;;;27.55;52.29;99920.03;4303426;33;34722;-69
2023/08/17 06:11:57;;;;;;;10.18;8.00;;;;;;;27.56;52.35;99910.75;4316584;33;33993;-68
2023/08/17 06:14:25;;;;;;;11.63;9.43;;;;;;;27.57;52.44;99914.31;4288763;33;34109;-68
2023/08/17 06:16:52;;;;;;;10.40;8.23;;;;;;;27.56;52.56;99918.13;4302055;33;33995;-69
2023/08/17 06:19:20;;;;;;;12.73;8.40;;;;;;;27.56;52.64;99918.97;4303927;33;33531;-68
2023/08/17 06:21:48;;;;;;;10.90;8.55;;;;;;;27.55;52.70;99909.06;4303735;33;33788;-71
2023/08/17 06:24:16;;;;;;;11.52;8.30;;;;;;;27.55;52.71;99903.59;4303915;33;33040;-68
2023/08/17 06:26:45;;;;;;;12.23;9.50;;;;;;;27.55;52.95;99903.59;4278859;33;34258;-68
2023/08/17 06:29:13;;;;;;;11.10;8.93;;;;;;;27.57;53.05;99900.63;4303848;33;33768;-68
2023/08/17 06:31:41;;;;;;;9.07;8.18;;;;;;;27.55;53.21;99906.31;4290323;33;33837;-69
2023/08/17 06:34:09;;;;;;;14.50;10.13;;;;;;;27.56;53.14;99915.38;4303805;33;34109;-68
2023/08/17 06:36:37;;;;;;;13.60;9.20;;;;;;;27.56;53.30;99907.16;4290623;33;34008;-68
2023/08/17 06:39:05;;;;;;;12.70;9.80;;;;;;;27.53;53.73;99900.28;4303822;33;33928;-68
2023/08/17 06:41:33;;;;;;;10.88;9.75;;;;;;;27.52;53.83;99895.88;4290571;33;34011;-68
2023/08/17 06:44:01;;;;;;;12.57;9.35;;;;;;;27.52;53.87;99889.56;4311801;33;34188;-68
2023/08/17 06:46:28;;;;;;;11.12;9.20;;;;;;;27.51;53.36;99890.62;4304428;33;33571;-68
2023/08/17 06:48:56;;;;;;;11.45;9.27;;;;;;;27.47;53.42;99895.81;4292535;33;35571;-68
2023/08/17 06:51:24;;;;;;;11.57;9.95;;;;;;;27.46;53.30;99900.44;4317906;33;33947;-71
2023/08/17 06:53:52;;;;;;;12.15;9.85;;;;;;;27.47;53.38;99887.59;4317839;33;33370;-68
2023/08/17 06:56:20;;;;;;;15.70;9.80;;;;;;;27.49;53.25;99879.94;4317481;33;33016;-71
2023/08/17 06:58:47;;;;;;;18.87;9.40;;;;;;;27.50;53.24;99886.25;4292706;33;33707;-69
2023/08/17 07:01:16;;;;;;;12.73;9.27;;;;;;;27.51;53.16;99891.47;4304238;33;34748;-70
2023/08/17 07:03:44;;;;;;;14.00;9.65;;;;;;;27.53;53.09;99894.81;4315178;33;33047;-71
2023/08/17 07:06:12;;;;;;;11.77;8.07;;;;;;;27.55;53.09;99892.63;4317316;33;34621;-67
2023/08/17 07:08:39;;;;;;;13.50;8.82;;;;;;;27.57;53.06;99898.69;4317142;33;35121;-68
2023/08/17 07:11:08;;;;;;;11.15;8.88;;;;;;;27.57;53.13;99893.22;4317029;33;34011;-67
2023/08/17 07:13:36;;;;;;;13.50;8.75;;;;;;;27.59;53.05;99901.19;4317325;33;33800;-69
2023/08/17 07:16:04;;;;;;;12.45;9.13;;;;;;;27.60;52.92;99906.41;4304007;33;34622;-70
2023/08/17 07:18:31;;;;;;;12.20;8.77;;;;;;;27.62;52.88;99912.47;4288297;33;33962;-71
2023/08/17 07:20:59;;;;;;;13.68;9.50;;;;;;;27.64;52.85;99913.03;4302636;33;34136;-68
2023/08/17 07:23:27;;;;;;;11.52;8.93;;;;;;;27.64;52.85;99912.22;4302409;33;33522;-68
2023/08/17 07:25:55;;;;;;;13.65;9.10;;;;;;;27.65;52.83;99911.97;4303300;33;33452;-69
2023/08/17 07:28:23;;;;;;;12.90;9.15;;;;;;;27.68;52.67;99918.84;4316972;33;33659;-70
2023/08/17 07:30:50;;;;;;;12.05;8.38;;;;;;;27.68;52.53;99910.63;4316972;33;34308;-68
2023/08/17 07:33:18;;;;;;;11.35;9.15;;;;;;;27.69;52.57;99901.31;4303593;33;34259;-71
2023/08/17 07:35:46;;;;;;;16.27;8.63;;;;;;;27.70;52.61;99903.00;4303719;33;32775;-68
2023/08/17 07:38:13;;;;;;;12.15;9.07;;;;;;;27.71;52.67;99899.19;4317297;33;33680;-67
2023/08/17 07:40:43;;;;;;;12.52;8.85;;;;;;;27.71;52.71;99907.41;4316670;33;33598;-68
2023/08/17 07:43:10;;;;;;;9.95;8.48;;;;;;;27.73;52.61;99905.25;4317018;33;33230;-70
2023/08/17 07:45:38;;;;;;;13.48;9.07;;;;;;;27.74;52.54;99908.81;4303799;33;33548;-68
2023/08/17 07:48:06;;;;;;;9.98;8.98;;;;;;;27.74;52.56;99914.31;4315877;33;34812;-67
2023/08/17 07:50:34;;;;;;;13.75;8.90;;;;;;;27.74;52.57;99911.56;4299942;33;33633;-67
2023/08/17 07:53:01;;;;;;;11.88;8.38;;;;;;;27.76;52.53;99909.41;4317005;33;33456;-66
2023/08/17 07:55:29;;;;;;;11.60;9.20;;;;;;;27.76;52.49;99909.41;4317331;33;34431;-67
2023/08/17 07:57:57;;;;;;;13.85;9.77;;;;;;;27.78;52.50;99909.97;4317263;33;34430;-74
2023/08/17 08:00:24;;;;;;;14.55;8.82;;;;;;;27.79;52.45;99904.22;4317286;33;33690;-70
2023/08/17 08:02:52;;;;;;;14.13;9.40;;;;;;;27.78;52.49;99916.28;4304092;33;33615;-74
2023/08/17 08:05:20;;;;;;;12.52;9.05;;;;;;;27.80;52.49;99918.78;4316960;33;33879;-72
2023/08/17 08:07:48;;;;;;;12.18;9.30;;;;;;;27.80;52.52;99916.06;4317084;33;33879;-69
2023/08/17 08:10:16;;;;;;;11.57;9.20;;;;;;;27.80;52.53;99916.87;4292039;33;34832;-69
2023/08/17 08:12:43;;;;;;;10.10;8.68;;;;;;;27.80;52.44;99916.06;4316401;33;34399;-74
2023/08/17 08:15:11;;;;;;;12.63;9.07;;;;;;;27.80;52.33;99910.56;4305485;33;34325;-72
2023/08/17 08:17:39;;;;;;;11.15;9.15;;;;;;;27.79;52.30;99908.87;4302697;33;33617;-74
2023/08/17 08:20:07;;;;;;;13.60;9.18;;;;;;;27.80;52.17;99910.56;4290039;33;34574;-73
2023/08/17 08:22:34;;;;;;;13.15;9.18;;;;;;;27.80;52.14;99907.81;4289297;33;33163;-72
2023/08/17 08:25:02;;;;;;;12.20;8.82;;;;;;;27.81;52.11;99910.31;4291446;33;33531;-68
2023/08/17 08:27:30;;;;;;;11.50;8.80;;;;;;;27.82;52.14;99909.22;4316619;33;33510;-67
2023/08/17 08:29:57;;;;;;;11.85;8.38;;;;;;;27.81;52.16;99913.06;4317134;33;33496;-66
2023/08/17 08:32:25;;;;;;;9.80;8.23;;;;;;;27.83;52.19;99913.62;4317230;33;33466;-70
2023/08/17 08:34:55;;;;;;;13.00;8.40;;;;;;;27.85;52.13;99916.94;4303530;33;33864;-66
2023/08/17 08:37:23;;;;;;;11.45;8.18;;;;;;;27.86;52.08;99915.84;4303717;33;33856;-71
2023/08/17 08:39:53;;;;;;;11.20;8.60;;;;;;;27.87;52.08;99911.19;4292014;33;34063;-69
2023/08/17 08:42:23;;;;;;;9.48;8.27;;;;;;;27.88;52.03;99916.41;4291084;33;32354;-74
2023/08/17 08:44:52;;;;;;;10.07;8.57;;;;;;;27.92;51.98;99911.25;4298952;33;34643;-71
2023/08/17 08:47:39;;;;;;;11.57;8.50;;;;;;;27.93;51.98;99908.28;4302301;33;34783;-73
2023/08/17 08:50:10;;;;;;;14.55;8.25;;;;;;;27.92;51.99;99903.03;4266592;33;33955;-73
2023/08/17 08:52:42;;;;;;;13.80;8.77;;;;;;;27.89;52.01;99903.56;4300118;33;33302;-69
2023/08/17 08:55:12;;;;;;;11.68;9.00;;;;;;;27.89;52.01;99904.41;4289224;33;34016;-74
2023/08/17 08:57:40;;;;;;;14.27;8.57;;;;;;;27.90;52.02;99903.31;4289097;33;34907;-71
2023/08/17 09:00:12;;;;;;;15.52;9.55;;;;;;;27.90;52.01;99905.22;4289284;33;34011;-69
2023/08/17 09:02:39;;;;;;;;;;;;;;;27.90;52.04;99911.53;4289434;33;33741;-72
2023/08/17 09:05:08;;;;;;;9.88;7.72;;;;;;;28.03;51.71;99902.09;4289092;33;34942;-71
2023/08/17 09:07:39;;;;;;;13.85;8.68;;;;;;;27.94;51.88;99900.88;4302151;33;34055;-67
2023/08/17 09:10:08;;;;;;;13.68;8.05;;;;;;;27.91;51.87;99901.37;4289029;33;33947;-64
2023/08/17 09:12:36;;;;;;;15.02;8.02;;;;;;;27.92;51.76;99903.88;4277919;33;33685;-69
2023/08/17 09:15:08;;;;;;;15.75;8.13;;;;;;;27.95;51.61;99902.53;4303551;33;34564;-66
2023/08/17 09:17:37;;;;;;;12.13;7.72;;;;;;;27.94;51.65;99904.47;4276979;33;33343;-68
2023/08/17 09:20:07;;;;;;;12.50;7.85;;;;;;;27.94;51.71;99909.13;4276865;33;33827;-70
2023/08/17 09:22:42;;;;;;;17.05;8.55;;;;;;;27.94;51.75;99900.88;4277615;33;33397;-69
2023/08/17 09:25:10;;;;;;;13.27;8.10;;;;;;;27.95;51.77;99891.56;4276311;33;32731;-70
2023/08/17 09:27:38;;;;;;;8.90;7.55;;;;;;;27.94;51.74;99893.50;4288657;33;33424;-67
2023/08/17 09:30:08;;;;;;;10.98;7.50;;;;;;;27.95;51.73;99888.81;4289092;33;33916;-67
2023/08/17 09:32:38;;;;;;;11.18;7.85;;;;;;;27.95;51.67;99888.81;4289520;33;33491;-68
2023/08/17 09:35:07;;;;;;;12.80;7.80;;;;;;;27.96;51.66;99888.56;4277053;33;33035;-69
2023/08/17 09:37:34;;;;;;;14.70;8.13;;;;;;;27.96;51.72;99883.09;4288656;33;34030;-65
2023/08/17 09:40:02;;;;;;;19.75;8.00;;;;;;;27.99;51.64;99884.50;4265230;33;34626;-71
2023/08/17 09:42:34;;;;;;;14.87;8.10;;;;;;;27.99;51.62;99879.00;4276949;33;33077;-71
2023/08/17 09:45:05;;;;;;;16.02;7.65;;;;;;;28.01;51.60;99881.50;4288724;33;33846;-70
2023/08/17 09:47:33;;;;;;;10.65;7.12;;;;;;;28.02;51.58;99883.12;4276636;33;32998;-71
2023/08/17 09:50:01;;;;;;;12.02;7.35;;;;;;;28.02;51.56;99873.00;4269690;33;33041;-67
2023/08/17 09:52:28;;;;;;;10.35;7.75;;;;;;;28.03;51.53;99877.41;4293114;33;33509;-65
2023/08/17 09:54:57;;;;;;;11.05;7.15;;;;;;;28.04;51.48;99876.31;4296418;33;34673;-70
2023/08/17 09:57:27;;;;;;;13.52;7.85;;;;;;;28.04;51.44;99870.84;4278851;33;206055;-70
2023/08/17 09:59:55;;;;;;;9.95;7.43;;;;;;;28.07;51.39;99869.47;4296111;33;33955;-68
2023/08/17 10:02:25;;;;;;;13.95;7.80;;;;;;;28.06;51.41;99868.66;4308106;33;32945;-66
2023/08/17 10:04:54;;;;;;;14.77;7.37;;;;;;;28.06;51.41;99874.16;4283901;33;33086;-71
2023/08/17 10:07:27;;;;;;;10.07;7.15;;;;;;;28.06;51.39;99871.41;4307859;33;34448;-71
2023/08/17 10:10:03;;;;;;;11.88;6.28;;;;;;;28.08;51.36;99865.69;4297549;33;34598;-70
2023/08/17 10:12:40;;;;;;;;;;;;;;;28.12;51.23;99864.91;4281565;33;33002;-66
2023/08/17 10:15:11;;;;;;;11.65;6.93;;;;;;;28.23;50.91;99872.16;4292754;33;33388;-68
2023/08/17 10:17:58;;;;;;;13.35;6.75;;;;;;;28.16;51.05;99857.81;4282794;33;33909;-70
2023/08/17 10:20:26;;;;;;;12.65;7.18;;;;;;;28.15;51.14;99861.63;4281308;33;34403;-71
2023/08/17 10:22:59;;;;;;;10.27;6.82;;;;;;;28.13;51.17;99863.81;4281363;33;33180;-69
2023/08/17 10:25:27;;;;;;;9.57;6.97;;;;;;;28.12;51.21;99864.91;4280990;33;33031;-69
2023/08/17 10:27:55;;;;;;;10.50;7.07;;;;;;;28.14;51.15;99859.16;4281008;33;32493;-71
2023/08/17 10:30:27;;;;;;;13.57;7.03;;;;;;;28.16;51.09;99857.81;4282088;33;34153;-71
2023/08/17 10:32:54;;;;;;;12.00;6.90;;;;;;;28.16;51.12;99859.72;4293190;33;33457;-70
2023/08/17 10:35:22;;;;;;;10.57;6.55;;;;;;;28.16;51.16;99856.97;4281070;33;33871;-71
2023/08/17 10:37:50;;;;;;;11.00;6.87;;;;;;;28.15;51.13;99856.16;4280792;33;34782;-71
2023/08/17 10:40:25;;;;;;;10.63;6.87;;;;;;;28.16;51.15;99857.81;4292849;33;33882;-71
2023/08/17 10:42:56;;;;;;;13.05;6.78;;;;;;;28.17;51.17;99855.91;4293202;33;34377;-71
2023/08/17 10:45:28;;;;;;;11.15;7.15;;;;;;;28.16;51.16;99849.56;4314067;33;33113;-71
2023/08/17 10:48:07;;;;;;;15.00;7.28;;;;;;;28.17;51.14;99854.00;4307909;33;33955;-70
2023/08/17 10:50:35;;;;;;;10.05;6.75;;;;;;;28.17;51.12;99853.16;4319710;33;33672;-71
2023/08/17 10:53:11;;;;;;;9.55;7.00;;;;;;;28.18;51.14;99849.34;4308145;33;33607;-71
2023/08/17 10:55:40;;;;;;;10.20;7.12;;;;;;;28.18;51.14;99861.13;4320004;33;33226;-71
2023/08/17 10:58:08;;;;;;;10.77;7.05;;;;;;;28.19;51.10;99859.22;4307117;33;34816;-71
2023/08/17 11:00:44;;;;;;;11.10;6.85;;;;;;;28.19;51.09;99845.50;4307847;33;33849;-64
2023/08/17 11:03:19;;;;;;;10.15;6.62;;;;;;;28.18;51.15;99852.91;4282566;33;31971;-70
2023/08/17 11:05:58;;;;;;;7.85;6.72;;;;;;;28.21;51.15;99857.88;4292349;33;34080;-70
2023/08/17 11:08:30;;;;;;;10.27;6.85;;;;;;;28.20;51.19;99856.22;4305083;33;33595;-70
2023/08/17 11:11:11;;;;;;;9.38;6.53;;;;;;;28.22;51.16;99845.00;4297787;33;33856;-70
2023/08/17 11:13:40;;;;;;;10.75;6.97;;;;;;;28.23;51.18;99857.63;4278342;33;34735;-71
2023/08/17 11:16:09;;;;;;;9.88;6.40;;;;;;;28.21;51.21;99851.53;4278712;33;33757;-71
2023/08/17 11:18:37;;;;;;;8.82;6.50;;;;;;;28.19;51.24;99849.06;4276433;33;34871;-65
2023/08/17 11:21:06;;;;;;;10.88;6.80;;;;;;;28.16;51.29;99849.56;4300156;33;34576;-65
2023/08/17 11:23:34;;;;;;;10.00;6.45;;;;;;;28.18;51.28;99849.34;4308828;33;33459;-71
2023/08/17 11:26:02;;;;;;;10.38;6.72;;;;;;;28.17;51.28;99834.78;4292657;33;34328;-65
2023/08/17 11:28:35;;;;;;;10.25;6.40;;;;;;;28.17;51.30;99840.28;4304614;33;34001;-68
2023/08/17 11:31:09;;;;;;;;;;;;;;;28.17;51.30;99826.56;4304813;33;32528;-68
2023/08/17 11:33:37;;;;;;;11.12;7.07;;;;;;;28.29;50.99;99845.59;4317924;33;33511;-70
2023/08/17 11:36:06;;;;;;;9.80;6.32;;;;;;;28.19;51.18;99854.56;4304629;33;33822;-66
2023/08/17 11:38:38;;;;;;;10.10;6.15;;;;;;;28.15;51.23;99850.66;4290297;33;33923;-65